Bethel Airport Bethel US
ICAO: PABE
IATA:
Category: Medium
Scheduled Services:

Elevation: 126 ft
TransAlt. 18000 ft.

Airport Communications:
ATIS:119.8
ANCHORAGE CNTR:125.2
CTAF/BETHEL WX:118.7
KENAI RDO:122.65
GND:121.7
TWEB:114.1
NG OPS:124.65
TWR:118.7

PABE Zoom In..

Runways:

(A) RW 01L length 6400 ft width 150 ft
---- / hdg 9

(B) RW 01R length 4000 ft width 75 ft
---- / hdg 10

(C) RW 12 length 1858 ft width 75 ft
---- / hdg 114

(D) RW 19L length 4000 ft width 75 ft
---- / hdg 190

(E) RW 19R length 6400 ft width 150 ft
ILS 111.50 / hdg 189

(F) RW 30 length 1858 ft width 75 ft
---- / hdg 294

Location; PABE
Day. 21 / Time. 23.53 Zulu
* Altimeter: 29.51
* Temperature: 09° c. 48.2°f.
* Wind from: 030° Speed 14 kn with Gusts up to 20 kn.
Dewpoint: 04° c.
Visibility: 10 Statute Miles.
Clouds: Overcast 6500 ft.

PABE 212353Z 03014G20KT 10SM OVC065 09/04 A2951 RMK AO2 SLP995 T00940039 10094 20056 52005

Going to: --> -->


Wind From 030°
Speed 14 kn.

 
 
jpsmedia worldairports.se 2020   terms of use